Nearby METAR Reports

 

KHQM - Hoquiam,WA, USA
Updated: Sat, 16-Dec-2017 11:53pm PST
Light rain, Mist, Overcast
Light rain, Mist, Overcast
 Wind from SSE
Wind: SSE 8 mph , 13 km/h
Temperature: 46°F , 8°C
Wind Chill: 42°F , 6°C
Dew Point: 45°F , 7°C
Humidity: 93%
Barometer: 30.24 inHg , 1024 hPa
Summary: Light rain, Mist
Clouds: Overcast
Visibility: 5 miles , 8 km
Cloud details: Partly cloudy 800 ft
Mostly cloudy 1600 ft
Overcast 2900 ft
2017/12/17 07:53 KHQM 170753Z AUTO 16007KT 5SM -RA BR SCT008 BKN016 OVC029 08/07 A3024 RMK AO2 RAB39 SLP242 P0001 T00780072 400830056